sensor_id;sensor_type;location;lat;lon;timestamp;P1;durP1;ratioP1;P2;durP2;ratioP2
16775;SDS011;8505;49.456;8.164;2023-08-24T00:01:02;8.60;;;4.90;;
16775;SDS011;8505;49.456;8.164;2023-08-24T00:03:30;10.07;;;4.70;;
16775;SDS011;8505;49.456;8.164;2023-08-24T00:05:59;8.23;;;4.78;;
16775;SDS011;8505;49.456;8.164;2023-08-24T00:08:27;9.40;;;4.57;;
16775;SDS011;8505;49.456;8.164;2023-08-24T00:10:56;8.05;;;4.97;;
16775;SDS011;8505;49.456;8.164;2023-08-24T00:13:23;8.88;;;4.93;;
16775;SDS011;8505;49.456;8.164;2023-08-24T00:15:52;10.15;;;4.40;;
16775;SDS011;8505;49.456;8.164;2023-08-24T00:18:20;8.73;;;4.63;;
16775;SDS011;8505;49.456;8.164;2023-08-24T00:20:48;8.27;;;4.70;;
16775;SDS011;8505;49.456;8.164;2023-08-24T00:23:17;9.10;;;4.55;;
16775;SDS011;8505;49.456;8.164;2023-08-24T00:25:45;8.77;;;4.80;;
16775;SDS011;8505;49.456;8.164;2023-08-24T00:28:14;11.43;;;4.78;;
16775;SDS011;8505;49.456;8.164;2023-08-24T00:30:42;7.93;;;4.80;;
16775;SDS011;8505;49.456;8.164;2023-08-24T00:33:10;7.43;;;4.40;;
16775;SDS011;8505;49.456;8.164;2023-08-24T00:35:37;8.30;;;4.50;;
16775;SDS011;8505;49.456;8.164;2023-08-24T00:38:05;10.82;;;4.50;;
16775;SDS011;8505;49.456;8.164;2023-08-24T00:40:33;7.28;;;4.20;;
16775;SDS011;8505;49.456;8.164;2023-08-24T00:43:01;7.65;;;4.50;;
16775;SDS011;8505;49.456;8.164;2023-08-24T00:45:31;8.63;;;4.80;;
16775;SDS011;8505;49.456;8.164;2023-08-24T00:48:00;6.80;;;4.60;;
16775;SDS011;8505;49.456;8.164;2023-08-24T00:50:29;7.10;;;4.80;;
16775;SDS011;8505;49.456;8.164;2023-08-24T00:52:57;8.40;;;4.50;;
16775;SDS011;8505;49.456;8.164;2023-08-24T00:55:25;7.72;;;4.60;;
16775;SDS011;8505;49.456;8.164;2023-08-24T00:57:52;8.80;;;4.63;;
16775;SDS011;8505;49.456;8.164;2023-08-24T01:00:21;9.63;;;4.93;;
16775;SDS011;8505;49.456;8.164;2023-08-24T01:02:50;6.05;;;4.43;;
16775;SDS011;8505;49.456;8.164;2023-08-24T01:05:18;7.57;;;4.70;;
16775;SDS011;8505;49.456;8.164;2023-08-24T01:07:46;7.45;;;4.75;;
16775;SDS011;8505;49.456;8.164;2023-08-24T01:10:15;9.10;;;4.90;;
16775;SDS011;8505;49.456;8.164;2023-08-24T01:12:47;6.97;;;4.70;;
16775;SDS011;8505;49.456;8.164;2023-08-24T01:15:25;7.75;;;4.55;;
16775;SDS011;8505;49.456;8.164;2023-08-24T01:18:00;8.02;;;4.50;;
16775;SDS011;8505;49.456;8.164;2023-08-24T01:20:32;8.80;;;4.88;;
16775;SDS011;8505;49.456;8.164;2023-08-24T01:23:04;10.68;;;4.88;;
16775;SDS011;8505;49.456;8.164;2023-08-24T01:25:42;8.20;;;4.93;;
16775;SDS011;8505;49.456;8.164;2023-08-24T01:28:17;8.27;;;4.97;;
16775;SDS011;8505;49.456;8.164;2023-08-24T01:30:47;9.60;;;4.80;;
16775;SDS011;8505;49.456;8.164;2023-08-24T01:33:14;9.97;;;5.07;;
16775;SDS011;8505;49.456;8.164;2023-08-24T01:35:42;10.07;;;5.03;;
16775;SDS011;8505;49.456;8.164;2023-08-24T01:38:10;9.23;;;5.20;;
16775;SDS011;8505;49.456;8.164;2023-08-24T01:40:45;9.07;;;4.90;;
16775;SDS011;8505;49.456;8.164;2023-08-24T01:43:22;9.43;;;5.22;;
16775;SDS011;8505;49.456;8.164;2023-08-24T01:46:09;10.05;;;5.53;;
16775;SDS011;8505;49.456;8.164;2023-08-24T01:48:38;9.77;;;5.47;;
16775;SDS011;8505;49.456;8.164;2023-08-24T01:51:07;7.97;;;4.97;;
16775;SDS011;8505;49.456;8.164;2023-08-24T01:53:36;8.27;;;5.07;;
16775;SDS011;8505;49.456;8.164;2023-08-24T01:56:09;7.35;;;5.18;;
16775;SDS011;8505;49.456;8.164;2023-08-24T01:58:39;7.60;;;5.07;;
16775;SDS011;8505;49.456;8.164;2023-08-24T02:01:07;8.63;;;5.23;;
16775;SDS011;8505;49.456;8.164;2023-08-24T02:03:37;8.75;;;5.13;;
16775;SDS011;8505;49.456;8.164;2023-08-24T02:06:06;11.60;;;5.18;;
16775;SDS011;8505;49.456;8.164;2023-08-24T02:08:34;11.20;;;4.85;;
16775;SDS011;8505;49.456;8.164;2023-08-24T02:11:01;7.30;;;5.53;;
16775;SDS011;8505;49.456;8.164;2023-08-24T02:13:29;7.38;;;5.07;;
16775;SDS011;8505;49.456;8.164;2023-08-24T02:16:02;8.38;;;5.13;;
16775;SDS011;8505;49.456;8.164;2023-08-24T02:18:31;6.90;;;4.97;;
16775;SDS011;8505;49.456;8.164;2023-08-24T02:20:59;9.63;;;5.30;;
16775;SDS011;8505;49.456;8.164;2023-08-24T02:23:26;9.68;;;5.57;;
16775;SDS011;8505;49.456;8.164;2023-08-24T02:25:55;8.23;;;5.55;;
16775;SDS011;8505;49.456;8.164;2023-08-24T02:28:23;9.18;;;5.55;;
16775;SDS011;8505;49.456;8.164;2023-08-24T02:30:51;7.68;;;5.10;;
16775;SDS011;8505;49.456;8.164;2023-08-24T02:33:20;11.13;;;5.32;;
16775;SDS011;8505;49.456;8.164;2023-08-24T02:35:48;8.13;;;5.53;;
16775;SDS011;8505;49.456;8.164;2023-08-24T02:38:16;8.63;;;5.82;;
16775;SDS011;8505;49.456;8.164;2023-08-24T02:40:43;10.20;;;5.57;;
16775;SDS011;8505;49.456;8.164;2023-08-24T02:43:11;9.45;;;5.70;;
16775;SDS011;8505;49.456;8.164;2023-08-24T02:45:39;8.85;;;5.80;;
16775;SDS011;8505;49.456;8.164;2023-08-24T02:48:07;10.13;;;5.65;;
16775;SDS011;8505;49.456;8.164;2023-08-24T02:50:37;8.40;;;5.60;;
16775;SDS011;8505;49.456;8.164;2023-08-24T02:53:05;10.90;;;5.87;;
16775;SDS011;8505;49.456;8.164;2023-08-24T02:55:32;9.23;;;5.32;;
16775;SDS011;8505;49.456;8.164;2023-08-24T02:58:00;9.77;;;5.23;;
16775;SDS011;8505;49.456;8.164;2023-08-24T03:00:28;8.30;;;5.05;;
16775;SDS011;8505;49.456;8.164;2023-08-24T03:02:56;8.53;;;5.30;;
16775;SDS011;8505;49.456;8.164;2023-08-24T03:05:25;8.85;;;5.40;;
16775;SDS011;8505;49.456;8.164;2023-08-24T03:07:54;10.40;;;5.20;;
16775;SDS011;8505;49.456;8.164;2023-08-24T03:10:22;8.15;;;4.78;;
16775;SDS011;8505;49.456;8.164;2023-08-24T03:12:49;8.20;;;4.80;;
16775;SDS011;8505;49.456;8.164;2023-08-24T03:15:17;8.05;;;4.75;;
16775;SDS011;8505;49.456;8.164;2023-08-24T03:17:45;8.57;;;4.80;;
16775;SDS011;8505;49.456;8.164;2023-08-24T03:20:14;8.93;;;4.72;;
16775;SDS011;8505;49.456;8.164;2023-08-24T03:22:41;6.85;;;4.28;;
16775;SDS011;8505;49.456;8.164;2023-08-24T03:25:11;7.22;;;3.92;;
16775;SDS011;8505;49.456;8.164;2023-08-24T03:27:38;7.00;;;4.00;;
16775;SDS011;8505;49.456;8.164;2023-08-24T03:30:06;6.60;;;3.95;;
16775;SDS011;8505;49.456;8.164;2023-08-24T03:32:35;8.10;;;3.70;;
16775;SDS011;8505;49.456;8.164;2023-08-24T03:35:03;7.32;;;3.80;;
16775;SDS011;8505;49.456;8.164;2023-08-24T03:37:31;8.45;;;4.15;;
16775;SDS011;8505;49.456;8.164;2023-08-24T03:39:59;6.75;;;4.30;;
16775;SDS011;8505;49.456;8.164;2023-08-24T03:42:28;9.10;;;4.60;;
16775;SDS011;8505;49.456;8.164;2023-08-24T03:44:56;6.97;;;4.72;;
16775;SDS011;8505;49.456;8.164;2023-08-24T03:47:26;9.90;;;4.80;;
16775;SDS011;8505;49.456;8.164;2023-08-24T03:49:54;9.18;;;4.63;;
16775;SDS011;8505;49.456;8.164;2023-08-24T03:52:21;8.38;;;4.75;;
16775;SDS011;8505;49.456;8.164;2023-08-24T03:54:49;7.65;;;4.70;;
16775;SDS011;8505;49.456;8.164;2023-08-24T03:57:17;8.10;;;4.57;;
16775;SDS011;8505;49.456;8.164;2023-08-24T03:59:46;7.45;;;4.43;;
16775;SDS011;8505;49.456;8.164;2023-08-24T04:02:13;8.57;;;4.30;;
16775;SDS011;8505;49.456;8.164;2023-08-24T04:04:41;8.27;;;4.43;;
16775;SDS011;8505;49.456;8.164;2023-08-24T04:07:09;7.70;;;4.70;;
16775;SDS011;8505;49.456;8.164;2023-08-24T04:09:37;7.10;;;4.43;;
16775;SDS011;8505;49.456;8.164;2023-08-24T04:12:04;6.95;;;4.30;;
16775;SDS011;8505;49.456;8.164;2023-08-24T04:14:32;8.05;;;4.53;;
16775;SDS011;8505;49.456;8.164;2023-08-24T04:17:01;8.93;;;4.50;;
16775;SDS011;8505;49.456;8.164;2023-08-24T04:19:29;10.35;;;4.60;;
16775;SDS011;8505;49.456;8.164;2023-08-24T04:21:57;6.15;;;4.15;;
16775;SDS011;8505;49.456;8.164;2023-08-24T04:24:25;7.55;;;4.45;;
16775;SDS011;8505;49.456;8.164;2023-08-24T04:26:53;8.80;;;4.53;;
16775;SDS011;8505;49.456;8.164;2023-08-24T04:29:20;7.18;;;4.25;;
16775;SDS011;8505;49.456;8.164;2023-08-24T04:31:48;6.47;;;4.10;;
16775;SDS011;8505;49.456;8.164;2023-08-24T04:34:17;7.60;;;4.20;;
16775;SDS011;8505;49.456;8.164;2023-08-24T04:36:45;6.97;;;4.00;;
16775;SDS011;8505;49.456;8.164;2023-08-24T04:39:12;8.07;;;4.15;;
16775;SDS011;8505;49.456;8.164;2023-08-24T04:41:40;9.05;;;4.80;;
16775;SDS011;8505;49.456;8.164;2023-08-24T04:44:08;8.90;;;4.70;;
16775;SDS011;8505;49.456;8.164;2023-08-24T04:46:36;6.95;;;4.32;;
16775;SDS011;8505;49.456;8.164;2023-08-24T04:49:04;7.40;;;4.90;;
16775;SDS011;8505;49.456;8.164;2023-08-24T04:51:33;8.68;;;4.90;;
16775;SDS011;8505;49.456;8.164;2023-08-24T04:54:00;6.47;;;4.68;;
16775;SDS011;8505;49.456;8.164;2023-08-24T04:56:28;8.80;;;5.18;;
16775;SDS011;8505;49.456;8.164;2023-08-24T04:58:57;7.50;;;5.18;;
16775;SDS011;8505;49.456;8.164;2023-08-24T05:01:26;7.60;;;4.80;;
16775;SDS011;8505;49.456;8.164;2023-08-24T05:03:56;7.90;;;5.15;;
16775;SDS011;8505;49.456;8.164;2023-08-24T05:06:24;8.75;;;5.07;;
16775;SDS011;8505;49.456;8.164;2023-08-24T05:08:54;8.03;;;4.77;;
16775;SDS011;8505;49.456;8.164;2023-08-24T05:11:22;6.68;;;4.88;;
16775;SDS011;8505;49.456;8.164;2023-08-24T05:13:52;8.38;;;5.05;;
16775;SDS011;8505;49.456;8.164;2023-08-24T05:16:20;7.70;;;4.97;;
16775;SDS011;8505;49.456;8.164;2023-08-24T05:18:47;8.10;;;5.10;;
16775;SDS011;8505;49.456;8.164;2023-08-24T05:21:15;7.78;;;5.20;;
16775;SDS011;8505;49.456;8.164;2023-08-24T05:23:43;7.57;;;5.20;;
16775;SDS011;8505;49.456;8.164;2023-08-24T05:26:12;10.30;;;5.10;;
16775;SDS011;8505;49.456;8.164;2023-08-24T05:28:39;7.45;;;5.15;;
16775;SDS011;8505;49.456;8.164;2023-08-24T05:31:07;9.18;;;4.88;;
16775;SDS011;8505;49.456;8.164;2023-08-24T05:33:35;9.18;;;5.05;;
16775;SDS011;8505;49.456;8.164;2023-08-24T05:36:03;6.50;;;4.70;;
16775;SDS011;8505;49.456;8.164;2023-08-24T05:38:31;7.47;;;4.60;;
16775;SDS011;8505;49.456;8.164;2023-08-24T05:40:59;9.90;;;4.68;;
16775;SDS011;8505;49.456;8.164;2023-08-24T05:43:28;9.47;;;4.80;;
16775;SDS011;8505;49.456;8.164;2023-08-24T05:45:55;7.80;;;4.43;;
16775;SDS011;8505;49.456;8.164;2023-08-24T05:48:23;9.10;;;4.88;;
16775;SDS011;8505;49.456;8.164;2023-08-24T05:50:50;9.68;;;4.85;;
16775;SDS011;8505;49.456;8.164;2023-08-24T05:53:18;9.95;;;4.68;;
16775;SDS011;8505;49.456;8.164;2023-08-24T05:55:45;10.35;;;5.03;;
16775;SDS011;8505;49.456;8.164;2023-08-24T05:58:13;8.80;;;4.85;;
16775;SDS011;8505;49.456;8.164;2023-08-24T06:00:42;7.70;;;4.93;;
16775;SDS011;8505;49.456;8.164;2023-08-24T06:03:10;10.43;;;4.50;;
16775;SDS011;8505;49.456;8.164;2023-08-24T06:05:38;7.30;;;4.50;;
16775;SDS011;8505;49.456;8.164;2023-08-24T06:08:05;6.47;;;4.40;;
16775;SDS011;8505;49.456;8.164;2023-08-24T06:10:33;7.72;;;4.57;;
16775;SDS011;8505;49.456;8.164;2023-08-24T06:13:01;6.05;;;4.47;;
16775;SDS011;8505;49.456;8.164;2023-08-24T06:15:29;7.40;;;4.70;;
16775;SDS011;8505;49.456;8.164;2023-08-24T06:17:58;6.97;;;4.50;;
16775;SDS011;8505;49.456;8.164;2023-08-24T06:20:27;7.75;;;4.55;;
16775;SDS011;8505;49.456;8.164;2023-08-24T06:22:54;9.38;;;4.50;;
16775;SDS011;8505;49.456;8.164;2023-08-24T06:25:23;9.90;;;4.72;;
16775;SDS011;8505;49.456;8.164;2023-08-24T06:27:50;8.60;;;4.82;;
16775;SDS011;8505;49.456;8.164;2023-08-24T06:30:18;9.93;;;4.90;;
16775;SDS011;8505;49.456;8.164;2023-08-24T06:32:46;9.18;;;4.40;;
16775;SDS011;8505;49.456;8.164;2023-08-24T06:35:15;9.38;;;4.82;;
16775;SDS011;8505;49.456;8.164;2023-08-24T06:37:44;8.82;;;4.68;;
16775;SDS011;8505;49.456;8.164;2023-08-24T06:40:12;9.27;;;4.90;;
16775;SDS011;8505;49.456;8.164;2023-08-24T06:42:41;8.02;;;4.40;;
16775;SDS011;8505;49.456;8.164;2023-08-24T06:45:09;7.10;;;4.60;;
16775;SDS011;8505;49.456;8.164;2023-08-24T06:47:37;6.70;;;4.50;;
16775;SDS011;8505;49.456;8.164;2023-08-24T06:50:07;8.35;;;4.50;;
16775;SDS011;8505;49.456;8.164;2023-08-24T06:52:36;7.43;;;4.45;;
16775;SDS011;8505;49.456;8.164;2023-08-24T06:55:04;9.73;;;4.75;;
16775;SDS011;8505;49.456;8.164;2023-08-24T06:57:32;7.95;;;4.43;;
16775;SDS011;8505;49.456;8.164;2023-08-24T07:00:00;7.38;;;4.57;;
16775;SDS011;8505;49.456;8.164;2023-08-24T07:02:31;9.07;;;4.53;;
16775;SDS011;8505;49.456;8.164;2023-08-24T07:04:59;10.65;;;5.20;;
16775;SDS011;8505;49.456;8.164;2023-08-24T07:07:28;9.93;;;4.50;;
16775;SDS011;8505;49.456;8.164;2023-08-24T07:09:57;12.18;;;4.80;;
16775;SDS011;8505;49.456;8.164;2023-08-24T07:12:24;8.77;;;4.40;;
16775;SDS011;8505;49.456;8.164;2023-08-24T07:14:52;9.32;;;4.55;;
16775;SDS011;8505;49.456;8.164;2023-08-24T07:17:20;8.10;;;4.50;;
16775;SDS011;8505;49.456;8.164;2023-08-24T07:19:48;10.07;;;4.22;;
16775;SDS011;8505;49.456;8.164;2023-08-24T07:22:16;9.90;;;4.10;;
16775;SDS011;8505;49.456;8.164;2023-08-24T07:24:43;7.65;;;4.15;;
16775;SDS011;8505;49.456;8.164;2023-08-24T07:27:13;7.00;;;4.10;;
16775;SDS011;8505;49.456;8.164;2023-08-24T07:29:41;10.90;;;4.30;;
16775;SDS011;8505;49.456;8.164;2023-08-24T07:32:08;8.48;;;4.00;;
16775;SDS011;8505;49.456;8.164;2023-08-24T07:34:36;10.77;;;4.13;;
16775;SDS011;8505;49.456;8.164;2023-08-24T07:37:04;5.75;;;3.83;;
16775;SDS011;8505;49.456;8.164;2023-08-24T07:39:32;10.43;;;4.00;;
16775;SDS011;8505;49.456;8.164;2023-08-24T07:42:00;7.63;;;4.18;;
16775;SDS011;8505;49.456;8.164;2023-08-24T07:44:30;7.90;;;4.32;;
16775;SDS011;8505;49.456;8.164;2023-08-24T07:46:58;7.35;;;3.97;;
16775;SDS011;8505;49.456;8.164;2023-08-24T07:49:27;9.63;;;4.30;;
16775;SDS011;8505;49.456;8.164;2023-08-24T07:51:54;6.35;;;4.00;;
16775;SDS011;8505;49.456;8.164;2023-08-24T07:54:23;8.00;;;4.30;;
16775;SDS011;8505;49.456;8.164;2023-08-24T07:56:52;8.00;;;4.10;;
16775;SDS011;8505;49.456;8.164;2023-08-24T07:59:19;10.27;;;4.22;;
16775;SDS011;8505;49.456;8.164;2023-08-24T08:01:48;8.55;;;3.90;;
16775;SDS011;8505;49.456;8.164;2023-08-24T08:04:16;7.20;;;3.80;;
16775;SDS011;8505;49.456;8.164;2023-08-24T08:06:44;7.43;;;3.72;;
16775;SDS011;8505;49.456;8.164;2023-08-24T08:09:11;8.15;;;4.00;;
16775;SDS011;8505;49.456;8.164;2023-08-24T08:11:39;10.30;;;3.83;;
16775;SDS011;8505;49.456;8.164;2023-08-24T08:14:07;10.00;;;4.03;;
16775;SDS011;8505;49.456;8.164;2023-08-24T08:16:36;9.18;;;4.00;;
16775;SDS011;8505;49.456;8.164;2023-08-24T08:19:05;9.25;;;4.22;;
16775;SDS011;8505;49.456;8.164;2023-08-24T08:21:33;7.95;;;4.00;;
16775;SDS011;8505;49.456;8.164;2023-08-24T08:24:01;7.47;;;3.60;;
16775;SDS011;8505;49.456;8.164;2023-08-24T08:26:29;7.07;;;3.70;;
16775;SDS011;8505;49.456;8.164;2023-08-24T08:28:56;6.05;;;3.85;;
16775;SDS011;8505;49.456;8.164;2023-08-24T08:31:24;10.10;;;4.10;;
16775;SDS011;8505;49.456;8.164;2023-08-24T08:33:52;10.82;;;4.40;;
16775;SDS011;8505;49.456;8.164;2023-08-24T08:36:22;10.43;;;4.23;;
16775;SDS011;8505;49.456;8.164;2023-08-24T08:38:50;7.70;;;4.00;;
16775;SDS011;8505;49.456;8.164;2023-08-24T08:41:18;9.45;;;3.78;;
16775;SDS011;8505;49.456;8.164;2023-08-24T08:43:49;7.45;;;4.00;;
16775;SDS011;8505;49.456;8.164;2023-08-24T08:46:17;9.15;;;3.88;;
16775;SDS011;8505;49.456;8.164;2023-08-24T08:48:45;7.50;;;3.70;;
16775;SDS011;8505;49.456;8.164;2023-08-24T08:51:14;9.60;;;3.38;;
16775;SDS011;8505;49.456;8.164;2023-08-24T08:53:46;7.53;;;3.38;;
16775;SDS011;8505;49.456;8.164;2023-08-24T08:56:13;6.50;;;3.20;;
16775;SDS011;8505;49.456;8.164;2023-08-24T08:58:41;6.32;;;3.03;;
16775;SDS011;8505;49.456;8.164;2023-08-24T09:01:10;6.60;;;3.30;;
16775;SDS011;8505;49.456;8.164;2023-08-24T09:03:38;7.63;;;3.15;;
16775;SDS011;8505;49.456;8.164;2023-08-24T09:06:06;6.38;;;3.08;;
16775;SDS011;8505;49.456;8.164;2023-08-24T09:08:34;7.00;;;3.10;;
16775;SDS011;8505;49.456;8.164;2023-08-24T09:11:03;8.30;;;3.28;;
16775;SDS011;8505;49.456;8.164;2023-08-24T09:13:34;7.88;;;3.45;;
16775;SDS011;8505;49.456;8.164;2023-08-24T09:16:05;5.53;;;3.10;;
16775;SDS011;8505;49.456;8.164;2023-08-24T09:18:36;4.63;;;2.80;;
16775;SDS011;8505;49.456;8.164;2023-08-24T09:21:08;7.30;;;3.05;;
16775;SDS011;8505;49.456;8.164;2023-08-24T09:23:37;6.45;;;3.17;;
16775;SDS011;8505;49.456;8.164;2023-08-24T09:26:06;6.03;;;2.85;;
16775;SDS011;8505;49.456;8.164;2023-08-24T09:28:34;6.30;;;3.10;;
16775;SDS011;8505;49.456;8.164;2023-08-24T09:31:02;5.67;;;3.00;;
16775;SDS011;8505;49.456;8.164;2023-08-24T09:33:30;6.85;;;3.05;;
16775;SDS011;8505;49.456;8.164;2023-08-24T09:35:58;5.25;;;2.80;;
16775;SDS011;8505;49.456;8.164;2023-08-24T09:38:29;8.45;;;3.03;;
16775;SDS011;8505;49.456;8.164;2023-08-24T09:40:57;8.32;;;3.13;;
16775;SDS011;8505;49.456;8.164;2023-08-24T09:43:26;7.32;;;2.92;;
16775;SDS011;8505;49.456;8.164;2023-08-24T09:45:57;7.15;;;3.00;;
16775;SDS011;8505;49.456;8.164;2023-08-24T09:48:26;8.90;;;2.80;;
16775;SDS011;8505;49.456;8.164;2023-08-24T09:50:55;5.13;;;2.60;;
16775;SDS011;8505;49.456;8.164;2023-08-24T09:53:24;5.80;;;2.75;;
16775;SDS011;8505;49.456;8.164;2023-08-24T09:55:56;10.65;;;2.88;;
16775;SDS011;8505;49.456;8.164;2023-08-24T09:58:28;7.05;;;3.00;;
16775;SDS011;8505;49.456;8.164;2023-08-24T10:00:57;8.32;;;3.00;;
16775;SDS011;8505;49.456;8.164;2023-08-24T10:03:25;8.32;;;2.88;;
16775;SDS011;8505;49.456;8.164;2023-08-24T10:05:55;6.93;;;2.80;;
16775;SDS011;8505;49.456;8.164;2023-08-24T10:08:34;11.15;;;3.17;;
16775;SDS011;8505;49.456;8.164;2023-08-24T10:11:05;7.20;;;2.80;;
16775;SDS011;8505;49.456;8.164;2023-08-24T10:13:36;5.75;;;3.28;;
16775;SDS011;8505;49.456;8.164;2023-08-24T10:16:08;4.55;;;3.17;;
16775;SDS011;8505;49.456;8.164;2023-08-24T10:18:39;9.77;;;3.35;;
16775;SDS011;8505;49.456;8.164;2023-08-24T10:21:08;8.57;;;3.50;;
16775;SDS011;8505;49.456;8.164;2023-08-24T10:23:35;10.57;;;3.55;;
16775;SDS011;8505;49.456;8.164;2023-08-24T10:26:05;7.95;;;3.38;;
16775;SDS011;8505;49.456;8.164;2023-08-24T10:28:35;7.45;;;3.45;;
16775;SDS011;8505;49.456;8.164;2023-08-24T10:31:04;7.55;;;3.40;;
16775;SDS011;8505;49.456;8.164;2023-08-24T10:33:32;7.35;;;3.60;;
16775;SDS011;8505;49.456;8.164;2023-08-24T10:36:04;5.47;;;3.10;;
16775;SDS011;8505;49.456;8.164;2023-08-24T10:38:34;8.83;;;3.37;;
16775;SDS011;8505;49.456;8.164;2023-08-24T10:41:07;9.50;;;3.65;;
16775;SDS011;8505;49.456;8.164;2023-08-24T10:43:36;9.73;;;3.77;;
16775;SDS011;8505;49.456;8.164;2023-08-24T10:46:04;9.38;;;3.40;;
16775;SDS011;8505;49.456;8.164;2023-08-24T10:48:57;8.77;;;3.60;;
16775;SDS011;8505;49.456;8.164;2023-08-24T10:51:27;8.80;;;3.35;;
16775;SDS011;8505;49.456;8.164;2023-08-24T10:53:57;6.38;;;3.70;;
16775;SDS011;8505;49.456;8.164;2023-08-24T10:56:35;8.38;;;3.50;;
16775;SDS011;8505;49.456;8.164;2023-08-24T10:59:13;9.15;;;3.60;;
16775;SDS011;8505;49.456;8.164;2023-08-24T11:01:42;6.90;;;3.50;;
16775;SDS011;8505;49.456;8.164;2023-08-24T11:04:11;6.15;;;3.40;;
16775;SDS011;8505;49.456;8.164;2023-08-24T11:06:52;7.77;;;3.40;;
16775;SDS011;8505;49.456;8.164;2023-08-24T11:09:22;6.30;;;3.42;;
16775;SDS011;8505;49.456;8.164;2023-08-24T11:11:57;8.00;;;3.33;;
16775;SDS011;8505;49.456;8.164;2023-08-24T11:14:28;9.35;;;3.20;;
16775;SDS011;8505;49.456;8.164;2023-08-24T11:16:58;8.07;;;3.45;;
16775;SDS011;8505;49.456;8.164;2023-08-24T11:19:27;5.38;;;3.10;;
16775;SDS011;8505;49.456;8.164;2023-08-24T11:21:56;7.55;;;3.30;;
16775;SDS011;8505;49.456;8.164;2023-08-24T11:24:25;8.07;;;3.20;;
16775;SDS011;8505;49.456;8.164;2023-08-24T11:26:54;6.07;;;3.20;;
16775;SDS011;8505;49.456;8.164;2023-08-24T11:29:24;6.00;;;3.25;;
16775;SDS011;8505;49.456;8.164;2023-08-24T11:31:53;6.72;;;3.30;;
16775;SDS011;8505;49.456;8.164;2023-08-24T11:34:21;7.13;;;3.15;;
16775;SDS011;8505;49.456;8.164;2023-08-24T11:36:49;7.85;;;3.30;;
16775;SDS011;8505;49.456;8.164;2023-08-24T11:39:18;4.80;;;3.10;;
16775;SDS011;8505;49.456;8.164;2023-08-24T11:41:56;6.47;;;3.03;;
16775;SDS011;8505;49.456;8.164;2023-08-24T11:44:25;6.28;;;3.35;;
16775;SDS011;8505;49.456;8.164;2023-08-24T11:46:57;7.50;;;3.28;;
16775;SDS011;8505;49.456;8.164;2023-08-24T11:49:26;6.10;;;3.00;;
16775;SDS011;8505;49.456;8.164;2023-08-24T11:51:54;5.88;;;2.95;;
16775;SDS011;8505;49.456;8.164;2023-08-24T11:54:23;5.43;;;3.10;;
16775;SDS011;8505;49.456;8.164;2023-08-24T11:56:50;7.13;;;3.30;;
16775;SDS011;8505;49.456;8.164;2023-08-24T11:59:19;4.95;;;3.20;;
16775;SDS011;8505;49.456;8.164;2023-08-24T12:01:47;6.18;;;3.20;;
16775;SDS011;8505;49.456;8.164;2023-08-24T12:04:16;6.20;;;3.00;;
16775;SDS011;8505;49.456;8.164;2023-08-24T12:06:44;6.70;;;2.95;;
16775;SDS011;8505;49.456;8.164;2023-08-24T12:09:12;8.95;;;2.97;;
16775;SDS011;8505;49.456;8.164;2023-08-24T12:11:41;7.82;;;3.10;;
16775;SDS011;8505;49.456;8.164;2023-08-24T12:14:16;7.00;;;3.20;;
16775;SDS011;8505;49.456;8.164;2023-08-24T12:16:44;8.07;;;3.08;;
16775;SDS011;8505;49.456;8.164;2023-08-24T12:19:17;7.88;;;3.10;;
16775;SDS011;8505;49.456;8.164;2023-08-24T12:21:49;7.22;;;2.97;;
16775;SDS011;8505;49.456;8.164;2023-08-24T12:24:18;6.70;;;3.08;;
16775;SDS011;8505;49.456;8.164;2023-08-24T12:26:54;8.48;;;3.22;;
16775;SDS011;8505;49.456;8.164;2023-08-24T12:29:23;9.10;;;3.30;;
16775;SDS011;8505;49.456;8.164;2023-08-24T12:31:51;5.60;;;3.00;;
16775;SDS011;8505;49.456;8.164;2023-08-24T12:34:24;6.20;;;3.20;;
16775;SDS011;8505;49.456;8.164;2023-08-24T12:36:53;7.72;;;3.22;;
16775;SDS011;8505;49.456;8.164;2023-08-24T12:39:21;7.65;;;3.30;;
16775;SDS011;8505;49.456;8.164;2023-08-24T12:41:49;7.17;;;3.10;;
16775;SDS011;8505;49.456;8.164;2023-08-24T12:44:17;6.90;;;3.23;;
16775;SDS011;8505;49.456;8.164;2023-08-24T12:46:44;6.67;;;3.10;;
16775;SDS011;8505;49.456;8.164;2023-08-24T12:49:12;5.38;;;3.22;;
16775;SDS011;8505;49.456;8.164;2023-08-24T12:51:41;6.63;;;3.10;;
16775;SDS011;8505;49.456;8.164;2023-08-24T12:54:09;6.47;;;3.30;;
16775;SDS011;8505;49.456;8.164;2023-08-24T12:56:38;6.38;;;3.42;;
16775;SDS011;8505;49.456;8.164;2023-08-24T12:59:06;4.57;;;2.90;;
16775;SDS011;8505;49.456;8.164;2023-08-24T13:01:34;6.55;;;3.30;;
16775;SDS011;8505;49.456;8.164;2023-08-24T13:04:03;6.35;;;3.30;;
16775;SDS011;8505;49.456;8.164;2023-08-24T13:06:31;7.78;;;3.53;;
16775;SDS011;8505;49.456;8.164;2023-08-24T13:09:01;7.53;;;3.40;;
16775;SDS011;8505;49.456;8.164;2023-08-24T13:11:29;7.83;;;3.47;;
16775;SDS011;8505;49.456;8.164;2023-08-24T13:13:57;8.57;;;3.47;;
16775;SDS011;8505;49.456;8.164;2023-08-24T13:16:25;7.50;;;3.50;;
16775;SDS011;8505;49.456;8.164;2023-08-24T13:18:54;8.65;;;3.50;;
16775;SDS011;8505;49.456;8.164;2023-08-24T13:21:22;7.03;;;3.30;;
16775;SDS011;8505;49.456;8.164;2023-08-24T13:23:52;7.35;;;3.45;;
16775;SDS011;8505;49.456;8.164;2023-08-24T13:26:21;7.35;;;3.30;;
16775;SDS011;8505;49.456;8.164;2023-08-24T13:28:50;7.53;;;3.55;;
16775;SDS011;8505;49.456;8.164;2023-08-24T13:31:18;7.18;;;3.40;;
16775;SDS011;8505;49.456;8.164;2023-08-24T13:33:46;8.25;;;3.50;;
16775;SDS011;8505;49.456;8.164;2023-08-24T13:36:13;6.63;;;3.50;;
16775;SDS011;8505;49.456;8.164;2023-08-24T13:38:42;6.97;;;3.42;;
16775;SDS011;8505;49.456;8.164;2023-08-24T13:41:10;5.85;;;3.53;;
16775;SDS011;8505;49.456;8.164;2023-08-24T13:43:40;7.35;;;3.28;;
16775;SDS011;8505;49.456;8.164;2023-08-24T13:46:08;7.10;;;3.80;;
16775;SDS011;8505;49.456;8.164;2023-08-24T13:48:36;6.60;;;3.60;;
16775;SDS011;8505;49.456;8.164;2023-08-24T13:51:04;5.65;;;3.40;;
16775;SDS011;8505;49.456;8.164;2023-08-24T13:53:32;6.18;;;3.45;;
16775;SDS011;8505;49.456;8.164;2023-08-24T13:56:00;5.32;;;3.22;;
16775;SDS011;8505;49.456;8.164;2023-08-24T13:58:28;5.53;;;3.40;;
16775;SDS011;8505;49.456;8.164;2023-08-24T14:00:57;6.47;;;3.50;;
16775;SDS011;8505;49.456;8.164;2023-08-24T14:03:25;9.30;;;3.55;;
16775;SDS011;8505;49.456;8.164;2023-08-24T14:05:56;6.37;;;3.40;;
16775;SDS011;8505;49.456;8.164;2023-08-24T14:08:24;6.57;;;3.50;;
16775;SDS011;8505;49.456;8.164;2023-08-24T14:10:52;7.43;;;3.50;;
16775;SDS011;8505;49.456;8.164;2023-08-24T14:13:20;6.93;;;3.50;;
16775;SDS011;8505;49.456;8.164;2023-08-24T14:15:48;8.02;;;3.47;;
16775;SDS011;8505;49.456;8.164;2023-08-24T14:18:18;7.93;;;3.67;;
16775;SDS011;8505;49.456;8.164;2023-08-24T14:20:47;5.78;;;3.53;;
16775;SDS011;8505;49.456;8.164;2023-08-24T14:23:14;10.15;;;3.88;;
16775;SDS011;8505;49.456;8.164;2023-08-24T14:25:42;6.03;;;3.63;;
16775;SDS011;8505;49.456;8.164;2023-08-24T14:28:10;8.40;;;3.85;;
16775;SDS011;8505;49.456;8.164;2023-08-24T14:30:38;6.45;;;3.67;;
16775;SDS011;8505;49.456;8.164;2023-08-24T14:33:06;8.15;;;4.00;;
16775;SDS011;8505;49.456;8.164;2023-08-24T14:35:35;7.15;;;4.05;;
16775;SDS011;8505;49.456;8.164;2023-08-24T14:38:03;11.48;;;4.35;;
16775;SDS011;8505;49.456;8.164;2023-08-24T14:40:31;11.43;;;4.68;;
16775;SDS011;8505;49.456;8.164;2023-08-24T14:42:59;10.48;;;4.57;;
16775;SDS011;8505;49.456;8.164;2023-08-24T14:45:27;9.83;;;4.70;;
16775;SDS011;8505;49.456;8.164;2023-08-24T14:47:54;9.60;;;5.00;;
16775;SDS011;8505;49.456;8.164;2023-08-24T14:50:23;9.25;;;5.40;;
16775;SDS011;8505;49.456;8.164;2023-08-24T14:52:52;9.25;;;5.20;;
16775;SDS011;8505;49.456;8.164;2023-08-24T14:55:20;9.63;;;5.00;;
16775;SDS011;8505;49.456;8.164;2023-08-24T14:57:47;7.97;;;5.18;;
16775;SDS011;8505;49.456;8.164;2023-08-24T15:00:19;8.80;;;5.05;;
16775;SDS011;8505;49.456;8.164;2023-08-24T15:02:47;11.80;;;4.90;;
16775;SDS011;8505;49.456;8.164;2023-08-24T15:05:15;9.70;;;4.78;;
16775;SDS011;8505;49.456;8.164;2023-08-24T15:07:45;11.13;;;5.03;;
16775;SDS011;8505;49.456;8.164;2023-08-24T15:10:14;9.15;;;4.63;;